sensor_id;sensor_type;location;lat;lon;timestamp;P1;durP1;ratioP1;P2;durP2;ratioP2
27225;SDS011;14732;51.074;3.788;2023-09-19T00:00:29;8.45;;;1.42;;
27225;SDS011;14732;51.074;3.788;2023-09-19T00:02:56;6.35;;;1.42;;
27225;SDS011;14732;51.074;3.788;2023-09-19T00:05:22;6.57;;;1.55;;
27225;SDS011;14732;51.074;3.788;2023-09-19T00:07:52;6.40;;;1.50;;
27225;SDS011;14732;51.074;3.788;2023-09-19T00:10:20;11.05;;;1.50;;
27225;SDS011;14732;51.074;3.788;2023-09-19T00:13:00;9.18;;;1.85;;
27225;SDS011;14732;51.074;3.788;2023-09-19T00:15:42;8.07;;;1.90;;
27225;SDS011;14732;51.074;3.788;2023-09-19T00:18:13;6.63;;;1.60;;
27225;SDS011;14732;51.074;3.788;2023-09-19T00:20:43;9.48;;;1.55;;
27225;SDS011;14732;51.074;3.788;2023-09-19T00:23:12;12.07;;;1.60;;
27225;SDS011;14732;51.074;3.788;2023-09-19T00:25:38;9.23;;;1.85;;
27225;SDS011;14732;51.074;3.788;2023-09-19T00:28:05;9.18;;;1.52;;
27225;SDS011;14732;51.074;3.788;2023-09-19T00:30:32;6.32;;;1.45;;
27225;SDS011;14732;51.074;3.788;2023-09-19T00:32:58;11.10;;;1.75;;
27225;SDS011;14732;51.074;3.788;2023-09-19T00:35:25;8.43;;;1.73;;
27225;SDS011;14732;51.074;3.788;2023-09-19T00:37:52;8.77;;;1.42;;
27225;SDS011;14732;51.074;3.788;2023-09-19T00:40:19;5.93;;;1.50;;
27225;SDS011;14732;51.074;3.788;2023-09-19T00:42:46;5.85;;;1.30;;
27225;SDS011;14732;51.074;3.788;2023-09-19T00:45:13;12.32;;;1.80;;
27225;SDS011;14732;51.074;3.788;2023-09-19T00:47:42;7.47;;;1.60;;
27225;SDS011;14732;51.074;3.788;2023-09-19T00:50:10;7.00;;;1.27;;
27225;SDS011;14732;51.074;3.788;2023-09-19T00:52:39;11.03;;;1.67;;
27225;SDS011;14732;51.074;3.788;2023-09-19T00:55:07;11.25;;;2.05;;
27225;SDS011;14732;51.074;3.788;2023-09-19T00:57:34;10.10;;;1.58;;
27225;SDS011;14732;51.074;3.788;2023-09-19T01:00:02;10.05;;;2.08;;
27225;SDS011;14732;51.074;3.788;2023-09-19T01:02:31;7.38;;;1.40;;
27225;SDS011;14732;51.074;3.788;2023-09-19T01:04:58;11.23;;;1.52;;
27225;SDS011;14732;51.074;3.788;2023-09-19T01:07:29;10.68;;;1.80;;
27225;SDS011;14732;51.074;3.788;2023-09-19T01:09:56;9.13;;;1.63;;
27225;SDS011;14732;51.074;3.788;2023-09-19T01:12:30;11.13;;;1.83;;
27225;SDS011;14732;51.074;3.788;2023-09-19T01:17:57;10.73;;;1.92;;
27225;SDS011;14732;51.074;3.788;2023-09-19T01:20:46;16.58;;;2.20;;
27225;SDS011;14732;51.074;3.788;2023-09-19T01:28:51;11.77;;;1.95;;
27225;SDS011;14732;51.074;3.788;2023-09-19T01:31:59;12.50;;;1.85;;
27225;SDS011;14732;51.074;3.788;2023-09-19T01:34:43;12.60;;;1.90;;
27225;SDS011;14732;51.074;3.788;2023-09-19T01:37:14;7.97;;;1.70;;
27225;SDS011;14732;51.074;3.788;2023-09-19T01:39:44;12.98;;;1.92;;
27225;SDS011;14732;51.074;3.788;2023-09-19T01:53:26;9.85;;;1.77;;
27225;SDS011;14732;51.074;3.788;2023-09-19T01:56:00;9.48;;;1.60;;
27225;SDS011;14732;51.074;3.788;2023-09-19T01:58:33;13.88;;;2.00;;
27225;SDS011;14732;51.074;3.788;2023-09-19T02:01:02;10.10;;;2.17;;
27225;SDS011;14732;51.074;3.788;2023-09-19T02:03:31;7.90;;;1.75;;
27225;SDS011;14732;51.074;3.788;2023-09-19T02:05:58;12.55;;;1.98;;
27225;SDS011;14732;51.074;3.788;2023-09-19T02:08:24;13.13;;;2.20;;
27225;SDS011;14732;51.074;3.788;2023-09-19T02:10:49;10.63;;;2.05;;
27225;SDS011;14732;51.074;3.788;2023-09-19T02:13:18;10.02;;;1.83;;
27225;SDS011;14732;51.074;3.788;2023-09-19T02:15:45;15.88;;;2.15;;
27225;SDS011;14732;51.074;3.788;2023-09-19T02:18:11;13.00;;;2.08;;
27225;SDS011;14732;51.074;3.788;2023-09-19T02:20:38;14.90;;;2.20;;
27225;SDS011;14732;51.074;3.788;2023-09-19T02:23:04;17.95;;;2.05;;
27225;SDS011;14732;51.074;3.788;2023-09-19T02:25:30;10.43;;;1.80;;
27225;SDS011;14732;51.074;3.788;2023-09-19T02:27:57;13.65;;;2.10;;
27225;SDS011;14732;51.074;3.788;2023-09-19T02:30:26;11.98;;;1.88;;
27225;SDS011;14732;51.074;3.788;2023-09-19T02:32:52;15.55;;;2.20;;
27225;SDS011;14732;51.074;3.788;2023-09-19T02:35:18;15.38;;;2.55;;
27225;SDS011;14732;51.074;3.788;2023-09-19T02:37:46;15.38;;;2.28;;
27225;SDS011;14732;51.074;3.788;2023-09-19T02:40:12;14.02;;;1.90;;
27225;SDS011;14732;51.074;3.788;2023-09-19T02:42:47;12.15;;;2.03;;
27225;SDS011;14732;51.074;3.788;2023-09-19T02:45:17;14.48;;;2.17;;
27225;SDS011;14732;51.074;3.788;2023-09-19T02:47:46;10.80;;;1.67;;
27225;SDS011;14732;51.074;3.788;2023-09-19T02:50:12;18.23;;;2.25;;
27225;SDS011;14732;51.074;3.788;2023-09-19T02:52:41;14.38;;;2.13;;
27225;SDS011;14732;51.074;3.788;2023-09-19T02:55:14;11.38;;;1.85;;
27225;SDS011;14732;51.074;3.788;2023-09-19T02:57:49;10.68;;;1.80;;
27225;SDS011;14732;51.074;3.788;2023-09-19T03:00:17;9.43;;;1.88;;
27225;SDS011;14732;51.074;3.788;2023-09-19T03:02:48;13.88;;;1.95;;
27225;SDS011;14732;51.074;3.788;2023-09-19T03:05:18;13.70;;;2.05;;
27225;SDS011;14732;51.074;3.788;2023-09-19T03:07:46;10.43;;;1.90;;
27225;SDS011;14732;51.074;3.788;2023-09-19T03:10:15;10.05;;;1.67;;
27225;SDS011;14732;51.074;3.788;2023-09-19T03:12:42;12.90;;;1.73;;
27225;SDS011;14732;51.074;3.788;2023-09-19T03:15:08;12.05;;;2.05;;
27225;SDS011;14732;51.074;3.788;2023-09-19T03:17:34;11.30;;;2.45;;
27225;SDS011;14732;51.074;3.788;2023-09-19T03:20:01;11.18;;;1.73;;
27225;SDS011;14732;51.074;3.788;2023-09-19T03:22:29;11.57;;;1.80;;
27225;SDS011;14732;51.074;3.788;2023-09-19T03:24:54;11.50;;;2.00;;
27225;SDS011;14732;51.074;3.788;2023-09-19T03:27:20;10.80;;;1.63;;
27225;SDS011;14732;51.074;3.788;2023-09-19T03:29:46;8.52;;;1.90;;
27225;SDS011;14732;51.074;3.788;2023-09-19T03:32:12;10.70;;;1.77;;
27225;SDS011;14732;51.074;3.788;2023-09-19T03:34:38;13.00;;;1.60;;
27225;SDS011;14732;51.074;3.788;2023-09-19T03:37:11;9.52;;;1.70;;
27225;SDS011;14732;51.074;3.788;2023-09-19T03:39:36;12.65;;;2.00;;
27225;SDS011;14732;51.074;3.788;2023-09-19T03:42:02;9.57;;;2.00;;
27225;SDS011;14732;51.074;3.788;2023-09-19T03:44:32;13.90;;;1.75;;
27225;SDS011;14732;51.074;3.788;2023-09-19T03:46:58;11.68;;;2.03;;
27225;SDS011;14732;51.074;3.788;2023-09-19T03:49:23;13.52;;;2.28;;
27225;SDS011;14732;51.074;3.788;2023-09-19T03:51:49;15.63;;;2.70;;
27225;SDS011;14732;51.074;3.788;2023-09-19T03:54:15;15.10;;;2.38;;
27225;SDS011;14732;51.074;3.788;2023-09-19T03:56:42;10.77;;;2.17;;
27225;SDS011;14732;51.074;3.788;2023-09-19T03:59:08;13.60;;;2.35;;
27225;SDS011;14732;51.074;3.788;2023-09-19T04:01:34;15.82;;;2.20;;
27225;SDS011;14732;51.074;3.788;2023-09-19T04:04:00;9.25;;;1.83;;
27225;SDS011;14732;51.074;3.788;2023-09-19T04:06:33;10.18;;;1.85;;
27225;SDS011;14732;51.074;3.788;2023-09-19T04:09:00;18.45;;;2.00;;
27225;SDS011;14732;51.074;3.788;2023-09-19T04:11:26;12.90;;;1.92;;
27225;SDS011;14732;51.074;3.788;2023-09-19T04:13:52;12.52;;;1.73;;
27225;SDS011;14732;51.074;3.788;2023-09-19T04:16:18;16.77;;;2.10;;
27225;SDS011;14732;51.074;3.788;2023-09-19T04:18:44;16.13;;;2.00;;
27225;SDS011;14732;51.074;3.788;2023-09-19T04:21:10;13.55;;;2.08;;
27225;SDS011;14732;51.074;3.788;2023-09-19T04:23:36;14.32;;;2.20;;
27225;SDS011;14732;51.074;3.788;2023-09-19T04:26:01;10.55;;;2.10;;
27225;SDS011;14732;51.074;3.788;2023-09-19T04:28:29;15.15;;;2.47;;
27225;SDS011;14732;51.074;3.788;2023-09-19T04:30:56;19.27;;;2.50;;
27225;SDS011;14732;51.074;3.788;2023-09-19T04:33:23;11.93;;;2.22;;
27225;SDS011;14732;51.074;3.788;2023-09-19T04:35:50;15.25;;;1.63;;
27225;SDS011;14732;51.074;3.788;2023-09-19T04:38:17;12.13;;;1.92;;
27225;SDS011;14732;51.074;3.788;2023-09-19T04:40:44;12.52;;;1.80;;
27225;SDS011;14732;51.074;3.788;2023-09-19T04:43:09;13.43;;;2.22;;
27225;SDS011;14732;51.074;3.788;2023-09-19T04:45:35;15.68;;;2.38;;
27225;SDS011;14732;51.074;3.788;2023-09-19T04:48:03;16.70;;;2.10;;
27225;SDS011;14732;51.074;3.788;2023-09-19T04:50:29;16.77;;;1.85;;
27225;SDS011;14732;51.074;3.788;2023-09-19T04:52:54;15.35;;;2.10;;
27225;SDS011;14732;51.074;3.788;2023-09-19T04:55:20;11.82;;;2.50;;
27225;SDS011;14732;51.074;3.788;2023-09-19T04:57:46;12.85;;;2.00;;
27225;SDS011;14732;51.074;3.788;2023-09-19T05:00:14;15.07;;;2.22;;
27225;SDS011;14732;51.074;3.788;2023-09-19T05:02:41;10.35;;;2.22;;
27225;SDS011;14732;51.074;3.788;2023-09-19T05:05:08;22.10;;;2.38;;
27225;SDS011;14732;51.074;3.788;2023-09-19T05:07:41;17.15;;;2.53;;
27225;SDS011;14732;51.074;3.788;2023-09-19T05:10:07;10.75;;;1.85;;
27225;SDS011;14732;51.074;3.788;2023-09-19T05:12:36;16.48;;;2.20;;
27225;SDS011;14732;51.074;3.788;2023-09-19T05:15:02;14.93;;;2.50;;
27225;SDS011;14732;51.074;3.788;2023-09-19T05:17:29;15.25;;;2.13;;
27225;SDS011;14732;51.074;3.788;2023-09-19T05:19:56;8.32;;;2.00;;
27225;SDS011;14732;51.074;3.788;2023-09-19T05:22:23;16.92;;;2.15;;
27225;SDS011;14732;51.074;3.788;2023-09-19T05:24:51;16.98;;;2.15;;
27225;SDS011;14732;51.074;3.788;2023-09-19T05:27:18;14.63;;;2.38;;
27225;SDS011;14732;51.074;3.788;2023-09-19T05:29:46;18.83;;;2.50;;
27225;SDS011;14732;51.074;3.788;2023-09-19T05:32:12;12.20;;;2.10;;
27225;SDS011;14732;51.074;3.788;2023-09-19T05:34:38;13.85;;;1.98;;
27225;SDS011;14732;51.074;3.788;2023-09-19T05:37:04;11.88;;;2.00;;
27225;SDS011;14732;51.074;3.788;2023-09-19T05:39:33;13.23;;;2.30;;
27225;SDS011;14732;51.074;3.788;2023-09-19T05:41:59;14.85;;;2.30;;
27225;SDS011;14732;51.074;3.788;2023-09-19T05:44:25;12.98;;;1.58;;
27225;SDS011;14732;51.074;3.788;2023-09-19T05:46:51;22.30;;;2.22;;
27225;SDS011;14732;51.074;3.788;2023-09-19T05:49:17;13.65;;;2.20;;
27225;SDS011;14732;51.074;3.788;2023-09-19T05:51:43;15.15;;;2.25;;
27225;SDS011;14732;51.074;3.788;2023-09-19T05:54:09;20.48;;;3.28;;
27225;SDS011;14732;51.074;3.788;2023-09-19T05:56:36;9.40;;;2.00;;
27225;SDS011;14732;51.074;3.788;2023-09-19T05:59:02;13.23;;;1.90;;
27225;SDS011;14732;51.074;3.788;2023-09-19T06:01:29;15.02;;;2.10;;
27225;SDS011;14732;51.074;3.788;2023-09-19T06:03:56;13.48;;;2.47;;
27225;SDS011;14732;51.074;3.788;2023-09-19T06:06:22;20.08;;;2.20;;
27225;SDS011;14732;51.074;3.788;2023-09-19T06:08:49;11.80;;;2.28;;
27225;SDS011;14732;51.074;3.788;2023-09-19T06:11:15;10.88;;;2.00;;
27225;SDS011;14732;51.074;3.788;2023-09-19T06:13:41;13.10;;;2.00;;
27225;SDS011;14732;51.074;3.788;2023-09-19T06:16:07;12.23;;;2.20;;
27225;SDS011;14732;51.074;3.788;2023-09-19T06:18:34;16.50;;;2.28;;
27225;SDS011;14732;51.074;3.788;2023-09-19T06:21:01;15.95;;;2.22;;
27225;SDS011;14732;51.074;3.788;2023-09-19T06:23:32;23.27;;;2.40;;
27225;SDS011;14732;51.074;3.788;2023-09-19T06:25:59;12.73;;;1.88;;
27225;SDS011;14732;51.074;3.788;2023-09-19T06:28:25;18.23;;;2.05;;
27225;SDS011;14732;51.074;3.788;2023-09-19T06:30:53;21.10;;;2.10;;
27225;SDS011;14732;51.074;3.788;2023-09-19T06:33:20;13.90;;;2.50;;
27225;SDS011;14732;51.074;3.788;2023-09-19T06:35:46;13.95;;;2.30;;
27225;SDS011;14732;51.074;3.788;2023-09-19T06:38:13;20.02;;;2.35;;
27225;SDS011;14732;51.074;3.788;2023-09-19T06:40:40;12.15;;;2.30;;
27225;SDS011;14732;51.074;3.788;2023-09-19T06:43:08;17.42;;;1.83;;
27225;SDS011;14732;51.074;3.788;2023-09-19T06:45:35;11.02;;;2.50;;
27225;SDS011;14732;51.074;3.788;2023-09-19T06:48:01;16.23;;;2.53;;
27225;SDS011;14732;51.074;3.788;2023-09-19T06:50:28;13.95;;;1.90;;
27225;SDS011;14732;51.074;3.788;2023-09-19T06:52:56;11.52;;;2.33;;
27225;SDS011;14732;51.074;3.788;2023-09-19T06:55:24;9.57;;;1.80;;
27225;SDS011;14732;51.074;3.788;2023-09-19T06:57:52;10.68;;;2.03;;
27225;SDS011;14732;51.074;3.788;2023-09-19T07:00:22;10.13;;;1.95;;
27225;SDS011;14732;51.074;3.788;2023-09-19T07:05:25;13.75;;;2.20;;
27225;SDS011;14732;51.074;3.788;2023-09-19T07:07:52;8.77;;;1.80;;
27225;SDS011;14732;51.074;3.788;2023-09-19T07:10:21;16.07;;;1.70;;
27225;SDS011;14732;51.074;3.788;2023-09-19T07:12:54;13.07;;;2.25;;
27225;SDS011;14732;51.074;3.788;2023-09-19T07:15:23;14.73;;;2.35;;
27225;SDS011;14732;51.074;3.788;2023-09-19T07:17:51;11.65;;;2.15;;
27225;SDS011;14732;51.074;3.788;2023-09-19T07:20:18;14.93;;;2.42;;
27225;SDS011;14732;51.074;3.788;2023-09-19T07:22:44;10.07;;;1.88;;
27225;SDS011;14732;51.074;3.788;2023-09-19T07:25:09;15.02;;;1.77;;
27225;SDS011;14732;51.074;3.788;2023-09-19T07:27:35;10.10;;;1.83;;
27225;SDS011;14732;51.074;3.788;2023-09-19T07:30:01;11.82;;;2.22;;
27225;SDS011;14732;51.074;3.788;2023-09-19T07:32:26;10.02;;;2.00;;
27225;SDS011;14732;51.074;3.788;2023-09-19T07:34:52;13.70;;;1.95;;
27225;SDS011;14732;51.074;3.788;2023-09-19T07:37:19;12.75;;;2.10;;
27225;SDS011;14732;51.074;3.788;2023-09-19T07:39:46;11.35;;;1.88;;
27225;SDS011;14732;51.074;3.788;2023-09-19T07:42:12;14.93;;;2.30;;
27225;SDS011;14732;51.074;3.788;2023-09-19T07:44:42;8.32;;;1.55;;
27225;SDS011;14732;51.074;3.788;2023-09-19T07:47:11;13.65;;;2.10;;
27225;SDS011;14732;51.074;3.788;2023-09-19T07:49:38;7.65;;;1.83;;
27225;SDS011;14732;51.074;3.788;2023-09-19T07:52:04;13.38;;;2.35;;
27225;SDS011;14732;51.074;3.788;2023-09-19T07:54:30;13.80;;;2.10;;
27225;SDS011;14732;51.074;3.788;2023-09-19T07:57:00;14.75;;;2.10;;
27225;SDS011;14732;51.074;3.788;2023-09-19T07:59:26;11.20;;;1.77;;
27225;SDS011;14732;51.074;3.788;2023-09-19T08:01:52;12.63;;;2.15;;
27225;SDS011;14732;51.074;3.788;2023-09-19T08:04:18;15.68;;;1.85;;
27225;SDS011;14732;51.074;3.788;2023-09-19T08:06:44;13.88;;;1.83;;
27225;SDS011;14732;51.074;3.788;2023-09-19T08:09:10;11.07;;;1.90;;
27225;SDS011;14732;51.074;3.788;2023-09-19T08:11:39;8.10;;;2.05;;
27225;SDS011;14732;51.074;3.788;2023-09-19T08:14:04;10.73;;;2.00;;
27225;SDS011;14732;51.074;3.788;2023-09-19T08:16:32;11.32;;;2.13;;
27225;SDS011;14732;51.074;3.788;2023-09-19T08:18:58;8.57;;;2.05;;
27225;SDS011;14732;51.074;3.788;2023-09-19T08:21:23;14.50;;;1.58;;
27225;SDS011;14732;51.074;3.788;2023-09-19T08:23:50;13.45;;;2.10;;
27225;SDS011;14732;51.074;3.788;2023-09-19T08:26:17;12.50;;;1.77;;
27225;SDS011;14732;51.074;3.788;2023-09-19T08:28:44;15.02;;;2.15;;
27225;SDS011;14732;51.074;3.788;2023-09-19T08:31:10;10.48;;;2.38;;
27225;SDS011;14732;51.074;3.788;2023-09-19T08:33:36;12.50;;;2.30;;
27225;SDS011;14732;51.074;3.788;2023-09-19T08:36:03;10.88;;;1.90;;
27225;SDS011;14732;51.074;3.788;2023-09-19T08:38:30;11.10;;;2.13;;
27225;SDS011;14732;51.074;3.788;2023-09-19T08:40:58;11.47;;;1.73;;
27225;SDS011;14732;51.074;3.788;2023-09-19T08:43:25;12.60;;;2.05;;
27225;SDS011;14732;51.074;3.788;2023-09-19T08:46:14;12.68;;;1.90;;
27225;SDS011;14732;51.074;3.788;2023-09-19T08:48:46;12.23;;;1.97;;
27225;SDS011;14732;51.074;3.788;2023-09-19T08:51:26;12.45;;;1.77;;
27225;SDS011;14732;51.074;3.788;2023-09-19T08:54:03;6.82;;;1.60;;
27225;SDS011;14732;51.074;3.788;2023-09-19T08:56:32;10.00;;;1.60;;
27225;SDS011;14732;51.074;3.788;2023-09-19T08:59:04;13.82;;;1.85;;
27225;SDS011;14732;51.074;3.788;2023-09-19T09:01:32;9.80;;;1.85;;
27225;SDS011;14732;51.074;3.788;2023-09-19T09:03:58;8.88;;;1.52;;
27225;SDS011;14732;51.074;3.788;2023-09-19T09:06:26;8.70;;;1.50;;
27225;SDS011;14732;51.074;3.788;2023-09-19T09:08:54;12.98;;;1.92;;
27225;SDS011;14732;51.074;3.788;2023-09-19T09:11:21;12.63;;;1.92;;
27225;SDS011;14732;51.074;3.788;2023-09-19T09:13:49;9.80;;;1.60;;
27225;SDS011;14732;51.074;3.788;2023-09-19T09:16:15;10.25;;;2.05;;
27225;SDS011;14732;51.074;3.788;2023-09-19T09:18:44;11.88;;;1.52;;
27225;SDS011;14732;51.074;3.788;2023-09-19T09:21:17;12.48;;;2.00;;
27225;SDS011;14732;51.074;3.788;2023-09-19T09:23:43;6.47;;;1.63;;
27225;SDS011;14732;51.074;3.788;2023-09-19T09:26:09;7.03;;;1.30;;
27225;SDS011;14732;51.074;3.788;2023-09-19T09:28:35;8.77;;;1.48;;
27225;SDS011;14732;51.074;3.788;2023-09-19T09:31:19;7.18;;;1.33;;
27225;SDS011;14732;51.074;3.788;2023-09-19T09:33:55;7.30;;;1.38;;
27225;SDS011;14732;51.074;3.788;2023-09-19T09:36:38;13.50;;;1.55;;
27225;SDS011;14732;51.074;3.788;2023-09-19T09:39:06;7.15;;;1.38;;
27225;SDS011;14732;51.074;3.788;2023-09-19T09:41:43;10.50;;;1.23;;
27225;SDS011;14732;51.074;3.788;2023-09-19T09:44:14;7.38;;;1.30;;
27225;SDS011;14732;51.074;3.788;2023-09-19T09:46:44;8.13;;;1.40;;
27225;SDS011;14732;51.074;3.788;2023-09-19T09:49:22;7.50;;;1.33;;
27225;SDS011;14732;51.074;3.788;2023-09-19T09:52:00;11.73;;;1.25;;
27225;SDS011;14732;51.074;3.788;2023-09-19T09:54:34;9.32;;;1.63;;
27225;SDS011;14732;51.074;3.788;2023-09-19T10:02:30;4.60;;;1.17;;
27225;SDS011;14732;51.074;3.788;2023-09-19T10:05:14;7.18;;;1.27;;
27225;SDS011;14732;51.074;3.788;2023-09-19T10:07:53;8.98;;;1.20;;
27225;SDS011;14732;51.074;3.788;2023-09-19T10:13:03;5.50;;;1.08;;
27225;SDS011;14732;51.074;3.788;2023-09-19T10:15:31;5.88;;;1.52;;
27225;SDS011;14732;51.074;3.788;2023-09-19T10:17:58;6.53;;;1.15;;
27225;SDS011;14732;51.074;3.788;2023-09-19T10:20:26;11.07;;;1.23;;
27225;SDS011;14732;51.074;3.788;2023-09-19T10:23:08;4.70;;;1.08;;
27225;SDS011;14732;51.074;3.788;2023-09-19T10:25:45;9.18;;;1.20;;
27225;SDS011;14732;51.074;3.788;2023-09-19T10:28:13;4.10;;;1.27;;
27225;SDS011;14732;51.074;3.788;2023-09-19T10:30:46;7.78;;;1.20;;
27225;SDS011;14732;51.074;3.788;2023-09-19T10:33:17;5.70;;;1.10;;
27225;SDS011;14732;51.074;3.788;2023-09-19T10:35:47;7.07;;;1.20;;
27225;SDS011;14732;51.074;3.788;2023-09-19T10:38:14;4.50;;;1.23;;
27225;SDS011;14732;51.074;3.788;2023-09-19T10:40:48;7.88;;;1.27;;
27225;SDS011;14732;51.074;3.788;2023-09-19T10:43:19;4.95;;;1.00;;
27225;SDS011;14732;51.074;3.788;2023-09-19T10:45:49;5.15;;;1.13;;
27225;SDS011;14732;51.074;3.788;2023-09-19T10:48:17;3.57;;;1.00;;
27225;SDS011;14732;51.074;3.788;2023-09-19T10:53:48;4.78;;;0.80;;
27225;SDS011;14732;51.074;3.788;2023-09-19T10:56:32;4.55;;;1.00;;
27225;SDS011;14732;51.074;3.788;2023-09-19T10:59:12;5.30;;;0.68;;
27225;SDS011;14732;51.074;3.788;2023-09-19T11:01:49;3.58;;;0.80;;
27225;SDS011;14732;51.074;3.788;2023-09-19T11:07:07;6.68;;;0.98;;
27225;SDS011;14732;51.074;3.788;2023-09-19T11:09:53;3.70;;;0.90;;
27225;SDS011;14732;51.074;3.788;2023-09-19T11:14:51;2.08;;;0.68;;
27225;SDS011;14732;51.074;3.788;2023-09-19T11:30:38;5.53;;;0.80;;
27225;SDS011;14732;51.074;3.788;2023-09-19T11:33:18;2.58;;;0.60;;
27225;SDS011;14732;51.074;3.788;2023-09-19T11:44:32;6.72;;;0.73;;
27225;SDS011;14732;51.074;3.788;2023-09-19T11:46:51;9.23;;;0.90;;
27225;SDS011;14732;51.074;3.788;2023-09-19T11:49:17;4.30;;;1.08;;
27225;SDS011;14732;51.074;3.788;2023-09-19T11:51:50;3.90;;;0.93;;
27225;SDS011;14732;51.074;3.788;2023-09-19T11:54:16;5.30;;;0.90;;
27225;SDS011;14732;51.074;3.788;2023-09-19T11:56:50;5.65;;;0.93;;
27225;SDS011;14732;51.074;3.788;2023-09-19T11:59:22;9.75;;;1.30;;
27225;SDS011;14732;51.074;3.788;2023-09-19T12:01:53;4.25;;;1.00;;
27225;SDS011;14732;51.074;3.788;2023-09-19T12:04:28;4.43;;;0.90;;
27225;SDS011;14732;51.074;3.788;2023-09-19T12:07:02;4.28;;;0.80;;
27225;SDS011;14732;51.074;3.788;2023-09-19T12:09:45;12.27;;;1.05;;
27225;SDS011;14732;51.074;3.788;2023-09-19T12:12:19;6.03;;;0.85;;
27225;SDS011;14732;51.074;3.788;2023-09-19T12:14:49;4.95;;;0.93;;
27225;SDS011;14732;51.074;3.788;2023-09-19T12:17:18;4.45;;;1.00;;
27225;SDS011;14732;51.074;3.788;2023-09-19T12:19:51;4.85;;;1.00;;
27225;SDS011;14732;51.074;3.788;2023-09-19T12:22:17;4.65;;;1.13;;
27225;SDS011;14732;51.074;3.788;2023-09-19T12:24:45;6.50;;;1.20;;
27225;SDS011;14732;51.074;3.788;2023-09-19T12:27:12;6.00;;;0.95;;
27225;SDS011;14732;51.074;3.788;2023-09-19T12:29:45;4.35;;;0.90;;
27225;SDS011;14732;51.074;3.788;2023-09-19T12:32:14;6.82;;;1.58;;
27225;SDS011;14732;51.074;3.788;2023-09-19T12:34:42;4.93;;;1.00;;
27225;SDS011;14732;51.074;3.788;2023-09-19T12:37:11;4.30;;;1.25;;
27225;SDS011;14732;51.074;3.788;2023-09-19T12:39:43;4.93;;;1.00;;
27225;SDS011;14732;51.074;3.788;2023-09-19T12:42:25;6.28;;;1.00;;
27225;SDS011;14732;51.074;3.788;2023-09-19T12:44:57;7.47;;;1.10;;
27225;SDS011;14732;51.074;3.788;2023-09-19T12:47:25;3.45;;;1.00;;
27225;SDS011;14732;51.074;3.788;2023-09-19T12:50:07;2.85;;;1.10;;
27225;SDS011;14732;51.074;3.788;2023-09-19T12:52:43;5.22;;;1.27;;
27225;SDS011;14732;51.074;3.788;2023-09-19T12:55:24;5.50;;;1.10;;
27225;SDS011;14732;51.074;3.788;2023-09-19T13:00:45;6.13;;;1.10;;
27225;SDS011;14732;51.074;3.788;2023-09-19T13:03:18;10.68;;;1.60;;
27225;SDS011;14732;51.074;3.788;2023-09-19T13:08:27;8.50;;;1.30;;
27225;SDS011;14732;51.074;3.788;2023-09-19T13:11:02;5.68;;;1.70;;
27225;SDS011;14732;51.074;3.788;2023-09-19T13:13:47;9.07;;;1.73;;
27225;SDS011;14732;51.074;3.788;2023-09-19T13:16:19;8.32;;;1.52;;
27225;SDS011;14732;51.074;3.788;2023-09-19T13:18:49;7.03;;;1.25;;
27225;SDS011;14732;51.074;3.788;2023-09-19T13:21:34;5.97;;;1.33;;
27225;SDS011;14732;51.074;3.788;2023-09-19T13:26:45;5.38;;;1.17;;
27225;SDS011;14732;51.074;3.788;2023-09-19T13:29:11;3.75;;;1.20;;
27225;SDS011;14732;51.074;3.788;2023-09-19T13:31:38;8.13;;;1.40;;
27225;SDS011;14732;51.074;3.788;2023-09-19T13:34:06;4.85;;;1.20;;
27225;SDS011;14732;51.074;3.788;2023-09-19T13:36:32;4.53;;;1.25;;
27225;SDS011;14732;51.074;3.788;2023-09-19T13:38:58;8.32;;;1.30;;
27225;SDS011;14732;51.074;3.788;2023-09-19T13:41:25;5.03;;;1.30;;
27225;SDS011;14732;51.074;3.788;2023-09-19T13:43:51;4.40;;;1.20;;
27225;SDS011;14732;51.074;3.788;2023-09-19T13:46:17;6.00;;;1.30;;
27225;SDS011;14732;51.074;3.788;2023-09-19T13:48:50;3.58;;;1.20;;
27225;SDS011;14732;51.074;3.788;2023-09-19T13:51:17;3.30;;;1.00;;
27225;SDS011;14732;51.074;3.788;2023-09-19T13:53:44;3.35;;;1.30;;
27225;SDS011;14732;51.074;3.788;2023-09-19T13:56:10;7.43;;;1.45;;
27225;SDS011;14732;51.074;3.788;2023-09-19T13:58:36;6.60;;;1.67;;
27225;SDS011;14732;51.074;3.788;2023-09-19T14:01:01;3.60;;;1.17;;
27225;SDS011;14732;51.074;3.788;2023-09-19T14:03:28;6.32;;;1.17;;
27225;SDS011;14732;51.074;3.788;2023-09-19T14:05:54;5.75;;;1.20;;
27225;SDS011;14732;51.074;3.788;2023-09-19T14:08:19;5.63;;;1.58;;
27225;SDS011;14732;51.074;3.788;2023-09-19T14:10:45;8.23;;;1.35;;
27225;SDS011;14732;51.074;3.788;2023-09-19T14:13:11;5.88;;;1.35;;
27225;SDS011;14732;51.074;3.788;2023-09-19T14:15:38;9.35;;;1.50;;
27225;SDS011;14732;51.074;3.788;2023-09-19T14:18:04;3.90;;;1.10;;
27225;SDS011;14732;51.074;3.788;2023-09-19T14:20:29;7.20;;;1.35;;
27225;SDS011;14732;51.074;3.788;2023-09-19T14:22:56;4.72;;;1.20;;
27225;SDS011;14732;51.074;3.788;2023-09-19T14:25:24;5.95;;;1.45;;
27225;SDS011;14732;51.074;3.788;2023-09-19T14:27:50;4.18;;;1.30;;
27225;SDS011;14732;51.074;3.788;2023-09-19T14:30:16;4.63;;;1.50;;
27225;SDS011;14732;51.074;3.788;2023-09-19T14:32:42;4.25;;;1.10;;
27225;SDS011;14732;51.074;3.788;2023-09-19T14:35:08;4.60;;;1.27;;
27225;SDS011;14732;51.074;3.788;2023-09-19T14:37:38;5.25;;;1.20;;
27225;SDS011;14732;51.074;3.788;2023-09-19T14:40:05;7.55;;;1.10;;
27225;SDS011;14732;51.074;3.788;2023-09-19T14:42:34;7.75;;;1.40;;
27225;SDS011;14732;51.074;3.788;2023-09-19T14:45:01;7.30;;;1.58;;
27225;SDS011;14732;51.074;3.788;2023-09-19T14:47:27;13.10;;;1.50;;
27225;SDS011;14732;51.074;3.788;2023-09-19T14:49:53;6.35;;;1.27;;
27225;SDS011;14732;51.074;3.788;2023-09-19T14:52:19;5.47;;;1.30;;
27225;SDS011;14732;51.074;3.788;2023-09-19T14:54:44;8.10;;;1.48;;
27225;SDS011;14732;51.074;3.788;2023-09-19T14:57:10;9.45;;;1.40;;
27225;SDS011;14732;51.074;3.788;2023-09-19T14:59:35;10.35;;;2.25;;
27225;SDS011;14732;51.074;3.788;2023-09-19T15:02:04;14.50;;;1.90;;
27225;SDS011;14732;51.074;3.788;2023-09-19T15:04:31;4.95;;;1.17;;
27225;SDS011;14732;51.074;3.788;2023-09-19T15:06:58;10.07;;;1.73;;
27225;SDS011;14732;51.074;3.788;2023-09-19T15:09:24;12.73;;;1.63;;
27225;SDS011;14732;51.074;3.788;2023-09-19T15:11:54;4.40;;;1.38;;
27225;SDS011;14732;51.074;3.788;2023-09-19T15:14:21;6.55;;;1.70;;
27225;SDS011;14732;51.074;3.788;2023-09-19T15:16:47;10.75;;;1.60;;
27225;SDS011;14732;51.074;3.788;2023-09-19T15:19:13;9.20;;;1.90;;
27225;SDS011;14732;51.074;3.788;2023-09-19T15:21:40;4.38;;;1.70;;
27225;SDS011;14732;51.074;3.788;2023-09-19T15:24:06;6.07;;;1.60;;
27225;SDS011;14732;51.074;3.788;2023-09-19T15:26:35;6.53;;;2.03;;
27225;SDS011;14732;51.074;3.788;2023-09-19T15:29:07;9.90;;;1.92;;
27225;SDS011;14732;51.074;3.788;2023-09-19T15:31:34;11.73;;;1.98;;
27225;SDS011;14732;51.074;3.788;2023-09-19T15:34:03;6.60;;;1.60;;
27225;SDS011;14732;51.074;3.788;2023-09-19T15:36:30;10.13;;;2.33;;
27225;SDS011;14732;51.074;3.788;2023-09-19T15:41:28;11.20;;;2.20;;
27225;SDS011;14732;51.074;3.788;2023-09-19T15:43:58;8.55;;;1.90;;
27225;SDS011;14732;51.074;3.788;2023-09-19T15:46:26;6.20;;;1.70;;
27225;SDS011;14732;51.074;3.788;2023-09-19T15:48:56;10.02;;;1.60;;
27225;SDS011;14732;51.074;3.788;2023-09-19T15:51:23;6.95;;;1.80;;
27225;SDS011;14732;51.074;3.788;2023-09-19T15:53:50;9.38;;;2.10;;
27225;SDS011;14732;51.074;3.788;2023-09-19T15:56:18;3.83;;;1.52;;
27225;SDS011;14732;51.074;3.788;2023-09-19T15:58:49;9.15;;;1.85;;
27225;SDS011;14732;51.074;3.788;2023-09-19T16:01:16;8.95;;;1.55;;